N583VC KDTS-KCHA
Flight info
| Callsign | N583VC |
|---|---|
| Flight time | 1h 20m |
| Altitude | 25000 |
| Route | CEW MGM HANKO NIOLA |
| Aircraft | B60T/L-SDFGRY/C |
Departure
| Time | 2026-04-19 22:30 |
|---|---|
| Airport | Destin Executive Airport (KDTS) |
Arrival
| Time | 2026-04-19 23:50 |
|---|---|
| Airport | Chattanooga Metropolitan Airport (Lovell Field) (KCHA) |
| Time | Latitude | Longitude | Altitude | Speed | Heading |
|---|---|---|---|---|---|
| 2026-04-19 22:11 | 30.39507 | -86.46856 | 25 ft | 0 kts | 52° |
| 2026-04-19 22:27 | 30.39508 | -86.46854 | 25 ft | 1 kts | 62° |
| 2026-04-19 22:27 | 30.39500 | -86.46822 | 28 ft | 8 kts | 104° |
| 2026-04-19 22:28 | 30.39484 | -86.46776 | 25 ft | 11 kts | 145° |
| 2026-04-19 22:28 | 30.39439 | -86.46732 | 27 ft | 0 kts | 86° |
| 2026-04-19 22:29 | 30.39439 | -86.46730 | 26 ft | 0 kts | 79° |
| 2026-04-19 22:29 | 30.39450 | -86.46709 | 26 ft | 3 kts | 50° |
| 2026-04-19 22:29 | 30.39502 | -86.46700 | 23 ft | 15 kts | 328° |
| 2026-04-19 22:29 | 30.39745 | -86.46914 | 35 ft | 80 kts | 321° |
| 2026-04-19 22:30 | 30.40272 | -86.47413 | 338 ft | 106 kts | 327° |
| 2026-04-19 22:30 | 30.40859 | -86.47968 | 795 ft | 115 kts | 317° |
| 2026-04-19 22:30 | 30.41387 | -86.48709 | 1183 ft | 128 kts | 315° |
| 2026-04-19 22:30 | 30.42031 | -86.49536 | 1613 ft | 144 kts | 323° |
| 2026-04-19 22:31 | 30.42953 | -86.49966 | 2131 ft | 146 kts | 352° |
| 2026-04-19 22:31 | 30.43959 | -86.50144 | 2733 ft | 146 kts | 356° |
| 2026-04-19 22:31 | 30.44957 | -86.50388 | 3310 ft | 147 kts | 355° |
| 2026-04-19 22:31 | 30.45955 | -86.50669 | 3872 ft | 147 kts | 355° |
| 2026-04-19 22:32 | 30.46970 | -86.50758 | 4423 ft | 147 kts | 1° |
| 2026-04-19 22:32 | 30.47992 | -86.51048 | 4964 ft | 155 kts | 344° |
| 2026-04-19 22:32 | 30.48989 | -86.51507 | 5496 ft | 157 kts | 341° |
| 2026-04-19 22:32 | 30.49982 | -86.51985 | 6135 ft | 150 kts | 340° |
| 2026-04-19 22:33 | 30.50921 | -86.52443 | 6826 ft | 142 kts | 340° |
| 2026-04-19 22:33 | 30.51815 | -86.52879 | 7504 ft | 137 kts | 339° |
| 2026-04-19 22:33 | 30.52689 | -86.53305 | 8150 ft | 135 kts | 338° |
| 2026-04-19 22:33 | 30.53553 | -86.53726 | 8786 ft | 134 kts | 338° |
| 2026-04-19 22:34 | 30.54409 | -86.54142 | 9433 ft | 133 kts | 338° |
| 2026-04-19 22:34 | 30.55258 | -86.54556 | 10068 ft | 131 kts | 337° |
| 2026-04-19 22:34 | 30.56103 | -86.54968 | 10598 ft | 134 kts | 336° |
| 2026-04-19 22:34 | 30.56989 | -86.55399 | 11045 ft | 142 kts | 336° |
| 2026-04-19 22:35 | 30.57911 | -86.55848 | 11489 ft | 148 kts | 335° |
| 2026-04-19 22:35 | 30.58868 | -86.56313 | 11962 ft | 151 kts | 334° |
| 2026-04-19 22:35 | 30.59840 | -86.56787 | 12447 ft | 152 kts | 334° |
| 2026-04-19 22:35 | 30.60819 | -86.57262 | 12948 ft | 152 kts | 334° |
| 2026-04-19 22:36 | 30.61797 | -86.57739 | 13443 ft | 153 kts | 333° |
| 2026-04-19 22:36 | 30.62787 | -86.58222 | 13923 ft | 155 kts | 333° |
| 2026-04-19 22:36 | 30.63786 | -86.58708 | 14355 ft | 156 kts | 332° |
| 2026-04-19 22:36 | 30.64788 | -86.59197 | 14787 ft | 156 kts | 331° |
| 2026-04-19 22:37 | 30.65788 | -86.59685 | 15224 ft | 156 kts | 330° |
| 2026-04-19 22:37 | 30.66784 | -86.60171 | 15668 ft | 155 kts | 330° |
| 2026-04-19 22:37 | 30.67763 | -86.60649 | 16105 ft | 154 kts | 329° |
| 2026-04-19 22:37 | 30.68750 | -86.61130 | 16551 ft | 153 kts | 328° |
| 2026-04-19 22:38 | 30.69732 | -86.61610 | 16999 ft | 152 kts | 328° |
| 2026-04-19 22:38 | 30.70714 | -86.62090 | 17398 ft | 154 kts | 327° |
| 2026-04-19 22:38 | 30.71707 | -86.62576 | 17816 ft | 155 kts | 327° |
| 2026-04-19 22:38 | 30.72708 | -86.63066 | 18102 ft | 157 kts | 326° |
| 2026-04-19 22:39 | 30.73711 | -86.63556 | 18399 ft | 156 kts | 326° |
| 2026-04-19 22:39 | 30.74710 | -86.64044 | 18667 ft | 155 kts | 326° |
| 2026-04-19 22:39 | 30.75705 | -86.64530 | 18912 ft | 155 kts | 325° |
| 2026-04-19 22:39 | 30.76696 | -86.65015 | 19167 ft | 154 kts | 325° |
| 2026-04-19 22:40 | 30.77685 | -86.65498 | 19424 ft | 154 kts | 324° |
| 2026-04-19 22:40 | 30.78671 | -86.65980 | 19671 ft | 154 kts | 324° |
| 2026-04-19 22:40 | 30.79655 | -86.66461 | 19919 ft | 153 kts | 324° |
| 2026-04-19 22:40 | 30.80635 | -86.66942 | 20123 ft | 155 kts | 324° |
| 2026-04-19 22:41 | 30.81647 | -86.67442 | 20239 ft | 161 kts | 324° |
| 2026-04-19 22:41 | 30.82741 | -86.67813 | 20369 ft | 179 kts | 345° |
| 2026-04-19 22:41 | 30.84036 | -86.67578 | 20524 ft | 193 kts | 359° |
| 2026-04-19 22:41 | 30.85350 | -86.67226 | 20691 ft | 194 kts | 358° |
| 2026-04-19 22:42 | 30.86669 | -86.66887 | 20860 ft | 195 kts | 358° |
| 2026-04-19 22:42 | 30.88000 | -86.66549 | 21032 ft | 196 kts | 358° |
| 2026-04-19 22:42 | 30.89334 | -86.66211 | 21204 ft | 197 kts | 358° |
| 2026-04-19 22:42 | 30.90674 | -86.65870 | 21371 ft | 198 kts | 358° |
| 2026-04-19 22:43 | 30.92020 | -86.65528 | 21565 ft | 198 kts | 359° |
| 2026-04-19 22:43 | 30.93371 | -86.65185 | 21741 ft | 199 kts | 359° |
| 2026-04-19 22:43 | 30.94730 | -86.64839 | 21908 ft | 200 kts | 358° |
| 2026-04-19 22:43 | 30.96092 | -86.64493 | 22082 ft | 201 kts | 358° |
| 2026-04-19 22:44 | 30.97459 | -86.64145 | 22252 ft | 201 kts | 358° |
| 2026-04-19 22:44 | 30.98811 | -86.63801 | 22421 ft | 202 kts | 358° |
| 2026-04-19 22:44 | 31.00184 | -86.63452 | 22594 ft | 202 kts | 358° |
| 2026-04-19 22:44 | 31.01561 | -86.63102 | 22763 ft | 203 kts | 357° |
| 2026-04-19 22:45 | 31.02942 | -86.62750 | 22926 ft | 203 kts | 357° |
| 2026-04-19 22:45 | 31.04326 | -86.62397 | 23095 ft | 204 kts | 357° |
| 2026-04-19 22:45 | 31.05713 | -86.62043 | 23267 ft | 204 kts | 356° |
| 2026-04-19 22:45 | 31.07106 | -86.61689 | 23428 ft | 205 kts | 356° |
| 2026-04-19 22:46 | 31.08501 | -86.61334 | 23577 ft | 206 kts | 356° |
| 2026-04-19 22:46 | 31.09912 | -86.60975 | 23710 ft | 208 kts | 356° |
| 2026-04-19 22:46 | 31.11332 | -86.60613 | 23837 ft | 210 kts | 356° |
| 2026-04-19 22:46 | 31.12760 | -86.60247 | 23951 ft | 210 kts | 356° |
| 2026-04-19 22:47 | 31.14175 | -86.59885 | 24064 ft | 211 kts | 356° |
| 2026-04-19 22:47 | 31.15611 | -86.59518 | 24186 ft | 211 kts | 356° |
| 2026-04-19 22:47 | 31.17049 | -86.59150 | 24302 ft | 211 kts | 355° |
| 2026-04-19 22:47 | 31.18484 | -86.58784 | 24415 ft | 211 kts | 355° |
| 2026-04-19 22:48 | 31.19919 | -86.58418 | 24564 ft | 211 kts | 355° |
| 2026-04-19 22:48 | 31.21352 | -86.58052 | 24673 ft | 211 kts | 354° |
| 2026-04-19 22:48 | 31.22784 | -86.57685 | 24782 ft | 211 kts | 354° |
| 2026-04-19 22:48 | 31.24220 | -86.57318 | 24883 ft | 211 kts | 354° |
| 2026-04-19 22:49 | 31.25655 | -86.56951 | 24978 ft | 211 kts | 354° |
| 2026-04-19 22:49 | 31.27088 | -86.56588 | 25015 ft | 216 kts | 354° |
| 2026-04-19 22:49 | 31.28588 | -86.56208 | 25023 ft | 223 kts | 355° |
| 2026-04-19 22:49 | 31.30118 | -86.55813 | 25035 ft | 227 kts | 355° |
| 2026-04-19 22:50 | 31.31678 | -86.55410 | 25032 ft | 231 kts | 355° |
| 2026-04-19 22:50 | 31.33261 | -86.55004 | 25034 ft | 234 kts | 356° |
| 2026-04-19 22:50 | 31.34862 | -86.54592 | 25032 ft | 236 kts | 356° |
| 2026-04-19 22:50 | 31.36472 | -86.54178 | 25018 ft | 238 kts | 356° |
| 2026-04-19 22:51 | 31.38100 | -86.53760 | 25020 ft | 240 kts | 356° |
| 2026-04-19 22:51 | 31.41403 | -86.52915 | 25020 ft | 246 kts | 357° |
| 2026-04-19 22:51 | 31.43087 | -86.52481 | 25018 ft | 250 kts | 357° |
| 2026-04-19 22:52 | 31.44793 | -86.52042 | 25020 ft | 252 kts | 357° |
| 2026-04-19 22:52 | 31.46491 | -86.51604 | 25021 ft | 254 kts | 357° |
| 2026-04-19 22:52 | 31.48248 | -86.51152 | 24996 ft | 257 kts | 358° |
| 2026-04-19 22:52 | 31.49998 | -86.50702 | 24988 ft | 258 kts | 358° |
| 2026-04-19 22:53 | 31.51752 | -86.50248 | 24987 ft | 258 kts | 358° |
| 2026-04-19 22:53 | 31.53487 | -86.49801 | 24990 ft | 258 kts | 358° |
| 2026-04-19 22:53 | 31.55245 | -86.49348 | 24987 ft | 258 kts | 358° |
| 2026-04-19 22:53 | 31.57003 | -86.48896 | 25012 ft | 258 kts | 358° |
| 2026-04-19 22:54 | 31.58758 | -86.48444 | 24997 ft | 258 kts | 358° |
| 2026-04-19 22:54 | 31.60510 | -86.47991 | 24997 ft | 257 kts | 358° |
| 2026-04-19 22:54 | 31.62253 | -86.47541 | 24996 ft | 257 kts | 358° |
| 2026-04-19 22:54 | 31.63997 | -86.47092 | 24995 ft | 256 kts | 358° |
| 2026-04-19 22:55 | 31.65739 | -86.46643 | 25022 ft | 257 kts | 358° |
| 2026-04-19 22:55 | 31.67485 | -86.46193 | 25024 ft | 257 kts | 358° |
| 2026-04-19 22:55 | 31.69235 | -86.45741 | 25028 ft | 258 kts | 358° |
| 2026-04-19 22:55 | 31.70990 | -86.45287 | 25066 ft | 257 kts | 358° |
| 2026-04-19 22:56 | 31.72721 | -86.44835 | 25180 ft | 253 kts | 357° |
| 2026-04-19 22:56 | 31.74417 | -86.44398 | 25211 ft | 254 kts | 357° |
| 2026-04-19 22:56 | 31.76151 | -86.43956 | 25223 ft | 256 kts | 357° |
| 2026-04-19 22:56 | 31.77898 | -86.43503 | 25227 ft | 257 kts | 358° |
| 2026-04-19 22:57 | 31.79649 | -86.43047 | 25229 ft | 258 kts | 358° |
| 2026-04-19 22:57 | 31.81405 | -86.42591 | 25227 ft | 259 kts | 358° |
| 2026-04-19 22:57 | 31.83161 | -86.42137 | 25224 ft | 259 kts | 358° |
| 2026-04-19 22:57 | 31.84926 | -86.41679 | 25225 ft | 260 kts | 358° |
| 2026-04-19 22:58 | 31.86684 | -86.41223 | 25223 ft | 260 kts | 358° |
| 2026-04-19 22:58 | 31.88460 | -86.40762 | 25222 ft | 261 kts | 358° |
| 2026-04-19 22:58 | 31.90237 | -86.40301 | 25218 ft | 261 kts | 358° |
| 2026-04-19 22:58 | 31.92012 | -86.39840 | 25222 ft | 261 kts | 358° |
| 2026-04-19 22:59 | 31.93787 | -86.39379 | 25221 ft | 261 kts | 358° |
| 2026-04-19 22:59 | 31.95563 | -86.38918 | 25218 ft | 261 kts | 358° |
| 2026-04-19 22:59 | 31.97337 | -86.38456 | 25213 ft | 261 kts | 358° |
| 2026-04-19 22:59 | 31.99116 | -86.37993 | 25209 ft | 262 kts | 358° |
| 2026-04-19 23:00 | 32.00867 | -86.37537 | 25206 ft | 261 kts | 358° |
| 2026-04-19 23:00 | 32.02647 | -86.37073 | 25250 ft | 262 kts | 358° |
| 2026-04-19 23:00 | 32.04433 | -86.36613 | 25235 ft | 263 kts | 358° |
| 2026-04-19 23:00 | 32.06220 | -86.36146 | 25238 ft | 263 kts | 358° |
| 2026-04-19 23:01 | 32.08003 | -86.35679 | 25237 ft | 263 kts | 358° |
| 2026-04-19 23:01 | 32.09787 | -86.35214 | 25236 ft | 262 kts | 358° |
| 2026-04-19 23:01 | 32.11569 | -86.34750 | 25238 ft | 262 kts | 358° |
| 2026-04-19 23:01 | 32.13347 | -86.34286 | 25248 ft | 262 kts | 358° |
| 2026-04-19 23:02 | 32.15129 | -86.33821 | 25249 ft | 262 kts | 358° |
| 2026-04-19 23:02 | 32.16907 | -86.33357 | 25250 ft | 262 kts | 358° |
| 2026-04-19 23:02 | 32.18682 | -86.32893 | 25251 ft | 261 kts | 358° |
| 2026-04-19 23:02 | 32.20456 | -86.32429 | 25251 ft | 261 kts | 358° |
| 2026-04-19 23:03 | 32.22206 | -86.31963 | 25251 ft | 263 kts | 1° |
| 2026-04-19 23:03 | 32.23968 | -86.31274 | 25252 ft | 267 kts | 6° |
| 2026-04-19 23:03 | 32.25723 | -86.30540 | 25252 ft | 267 kts | 5° |
| 2026-04-19 23:03 | 32.27477 | -86.29821 | 25252 ft | 266 kts | 5° |
| 2026-04-19 23:04 | 32.29232 | -86.29110 | 25250 ft | 266 kts | 5° |
| 2026-04-19 23:04 | 32.30987 | -86.28397 | 25253 ft | 267 kts | 5° |
| 2026-04-19 23:04 | 32.32741 | -86.27679 | 25253 ft | 267 kts | 5° |
| 2026-04-19 23:04 | 32.34470 | -86.26972 | 25235 ft | 266 kts | 5° |
| 2026-04-19 23:05 | 32.36221 | -86.26256 | 25236 ft | 266 kts | 5° |
| 2026-04-19 23:05 | 32.37972 | -86.25541 | 25235 ft | 266 kts | 5° |
| 2026-04-19 23:05 | 32.39717 | -86.24827 | 25238 ft | 266 kts | 5° |
| 2026-04-19 23:05 | 32.41462 | -86.24114 | 25239 ft | 265 kts | 5° |
| 2026-04-19 23:06 | 32.43209 | -86.23399 | 25241 ft | 265 kts | 5° |
| 2026-04-19 23:06 | 32.44953 | -86.22685 | 25240 ft | 265 kts | 5° |
| 2026-04-19 23:06 | 32.46695 | -86.21971 | 25243 ft | 265 kts | 5° |
| 2026-04-19 23:06 | 32.48434 | -86.21258 | 25242 ft | 264 kts | 5° |
| 2026-04-19 23:07 | 32.50149 | -86.20555 | 25240 ft | 264 kts | 5° |
| 2026-04-19 23:07 | 32.51909 | -86.19834 | 25240 ft | 264 kts | 5° |
| 2026-04-19 23:07 | 32.53647 | -86.19121 | 25238 ft | 264 kts | 5° |
| 2026-04-19 23:07 | 32.55362 | -86.18416 | 25240 ft | 264 kts | 5° |
| 2026-04-19 23:08 | 32.57101 | -86.17702 | 25244 ft | 265 kts | 5° |
| 2026-04-19 23:08 | 32.58846 | -86.16986 | 25227 ft | 265 kts | 5° |
| 2026-04-19 23:08 | 32.60592 | -86.16267 | 25240 ft | 265 kts | 5° |
| 2026-04-19 23:08 | 32.62335 | -86.15550 | 25240 ft | 265 kts | 5° |
| 2026-04-19 23:09 | 32.64084 | -86.14831 | 25241 ft | 265 kts | 5° |
| 2026-04-19 23:09 | 32.65823 | -86.14116 | 25242 ft | 265 kts | 5° |
| 2026-04-19 23:09 | 32.67565 | -86.13399 | 25244 ft | 265 kts | 5° |
| 2026-04-19 23:09 | 32.69306 | -86.12682 | 25245 ft | 265 kts | 5° |
| 2026-04-19 23:10 | 32.71022 | -86.11975 | 25246 ft | 264 kts | 5° |
| 2026-04-19 23:10 | 32.72762 | -86.11258 | 25246 ft | 265 kts | 5° |
| 2026-04-19 23:10 | 32.74501 | -86.10540 | 25246 ft | 264 kts | 5° |
| 2026-04-19 23:10 | 32.76238 | -86.09824 | 25247 ft | 264 kts | 5° |
| 2026-04-19 23:11 | 32.77977 | -86.09106 | 25249 ft | 264 kts | 5° |
| 2026-04-19 23:11 | 32.79712 | -86.08389 | 25250 ft | 264 kts | 5° |
| 2026-04-19 23:11 | 32.81446 | -86.07674 | 25251 ft | 264 kts | 5° |
| 2026-04-19 23:11 | 32.83184 | -86.06956 | 25272 ft | 264 kts | 5° |
| 2026-04-19 23:12 | 32.84923 | -86.06237 | 25256 ft | 264 kts | 5° |
| 2026-04-19 23:12 | 32.86661 | -86.05518 | 25257 ft | 264 kts | 5° |
| 2026-04-19 23:12 | 32.88394 | -86.04801 | 25257 ft | 264 kts | 5° |
| 2026-04-19 23:12 | 32.90129 | -86.04083 | 25256 ft | 263 kts | 5° |
| 2026-04-19 23:13 | 32.91835 | -86.03377 | 25256 ft | 263 kts | 5° |
| 2026-04-19 23:13 | 32.93563 | -86.02661 | 25255 ft | 263 kts | 5° |
| 2026-04-19 23:13 | 32.95292 | -86.01945 | 25255 ft | 263 kts | 5° |
| 2026-04-19 23:13 | 32.97021 | -86.01227 | 25254 ft | 263 kts | 5° |
| 2026-04-19 23:14 | 32.98744 | -86.00513 | 25253 ft | 263 kts | 5° |
| 2026-04-19 23:14 | 33.00473 | -85.99796 | 25254 ft | 263 kts | 5° |
| 2026-04-19 23:14 | 33.02197 | -85.99080 | 25254 ft | 262 kts | 5° |
| 2026-04-19 23:14 | 33.03927 | -85.98362 | 25253 ft | 262 kts | 5° |
| 2026-04-19 23:15 | 33.05649 | -85.97646 | 25255 ft | 262 kts | 5° |
| 2026-04-19 23:15 | 33.07374 | -85.96929 | 25254 ft | 262 kts | 5° |
| 2026-04-19 23:15 | 33.09095 | -85.96214 | 25254 ft | 262 kts | 5° |
| 2026-04-19 23:15 | 33.10818 | -85.95497 | 25259 ft | 263 kts | 4° |
| 2026-04-19 23:16 | 33.12542 | -85.94780 | 25258 ft | 262 kts | 5° |
| 2026-04-19 23:16 | 33.14264 | -85.94062 | 25260 ft | 262 kts | 5° |
| 2026-04-19 23:16 | 33.15989 | -85.93345 | 25260 ft | 262 kts | 5° |
| 2026-04-19 23:16 | 33.17713 | -85.92627 | 25261 ft | 263 kts | 5° |
| 2026-04-19 23:17 | 33.19418 | -85.91916 | 25261 ft | 263 kts | 5° |
| 2026-04-19 23:17 | 33.21140 | -85.91197 | 25261 ft | 262 kts | 5° |
| 2026-04-19 23:17 | 33.22866 | -85.90477 | 25258 ft | 263 kts | 5° |
| 2026-04-19 23:17 | 33.24594 | -85.89757 | 25257 ft | 263 kts | 5° |
| 2026-04-19 23:18 | 33.26320 | -85.89035 | 25260 ft | 262 kts | 5° |
| 2026-04-19 23:18 | 33.28044 | -85.88314 | 25261 ft | 262 kts | 5° |
| 2026-04-19 23:18 | 33.29766 | -85.87595 | 25259 ft | 262 kts | 5° |
| 2026-04-19 23:18 | 33.31487 | -85.86876 | 25260 ft | 262 kts | 4° |
| 2026-04-19 23:19 | 33.33203 | -85.86160 | 25263 ft | 262 kts | 5° |
| 2026-04-19 23:19 | 33.34925 | -85.85439 | 25263 ft | 262 kts | 5° |
| 2026-04-19 23:19 | 33.36641 | -85.84720 | 25262 ft | 262 kts | 5° |
| 2026-04-19 23:19 | 33.38361 | -85.84000 | 25262 ft | 262 kts | 5° |
| 2026-04-19 23:20 | 33.40077 | -85.83279 | 25259 ft | 261 kts | 4° |
| 2026-04-19 23:20 | 33.41764 | -85.82575 | 25261 ft | 259 kts | 4° |
| 2026-04-19 23:20 | 33.43467 | -85.81862 | 25256 ft | 259 kts | 4° |
| 2026-04-19 23:20 | 33.45168 | -85.81145 | 25254 ft | 258 kts | 4° |
| 2026-04-19 23:21 | 33.46859 | -85.80433 | 25253 ft | 257 kts | 4° |
| 2026-04-19 23:21 | 33.47981 | -85.79965 | 25255 ft | 258 kts | 4° |
| 2026-04-19 23:21 | 33.49693 | -85.79252 | 25258 ft | 261 kts | 5° |
| 2026-04-19 23:21 | 33.51974 | -85.78290 | 25261 ft | 263 kts | 5° |
| 2026-04-19 23:22 | 33.53141 | -85.77799 | 25267 ft | 264 kts | 5° |
| 2026-04-19 23:22 | 33.54883 | -85.77068 | 25267 ft | 265 kts | 5° |
| 2026-04-19 23:22 | 33.56631 | -85.76333 | 25266 ft | 267 kts | 5° |
| 2026-04-19 23:22 | 33.58388 | -85.75593 | 25263 ft | 268 kts | 5° |
| 2026-04-19 23:23 | 33.60130 | -85.74859 | 25263 ft | 269 kts | 5° |
| 2026-04-19 23:23 | 33.61906 | -85.74111 | 25282 ft | 271 kts | 5° |
| 2026-04-19 23:23 | 33.63689 | -85.73358 | 25266 ft | 271 kts | 5° |
| 2026-04-19 23:23 | 33.65480 | -85.72605 | 25076 ft | 276 kts | 5° |
| 2026-04-19 23:24 | 33.67317 | -85.71838 | 24603 ft | 285 kts | 6° |
| 2026-04-19 23:24 | 33.69217 | -85.71038 | 24054 ft | 294 kts | 7° |
| 2026-04-19 23:24 | 33.71163 | -85.70208 | 23452 ft | 296 kts | 7° |
| 2026-04-19 23:24 | 33.73079 | -85.69384 | 22809 ft | 289 kts | 7° |
| 2026-04-19 23:25 | 33.74954 | -85.68592 | 22183 ft | 283 kts | 7° |
| 2026-04-19 23:25 | 33.76781 | -85.67746 | 21570 ft | 284 kts | 16° |
| 2026-04-19 23:25 | 33.78422 | -85.66329 | 20962 ft | 288 kts | 25° |
| 2026-04-19 23:25 | 33.80122 | -85.65185 | 20397 ft | 275 kts | 15° |
| 2026-04-19 23:26 | 33.81845 | -85.64251 | 19842 ft | 269 kts | 13° |
| 2026-04-19 23:26 | 33.83526 | -85.63383 | 19325 ft | 263 kts | 13° |
| 2026-04-19 23:26 | 33.85199 | -85.62536 | 18769 ft | 257 kts | 12° |
| 2026-04-19 23:26 | 33.86808 | -85.61730 | 18180 ft | 253 kts | 13° |
| 2026-04-19 23:27 | 33.88434 | -85.60906 | 17663 ft | 247 kts | 13° |
| 2026-04-19 23:27 | 33.89989 | -85.60132 | 17274 ft | 238 kts | 12° |
| 2026-04-19 23:27 | 33.91494 | -85.59378 | 17011 ft | 233 kts | 12° |
| 2026-04-19 23:27 | 33.93006 | -85.58627 | 16790 ft | 237 kts | 12° |
| 2026-04-19 23:28 | 33.94537 | -85.57874 | 16575 ft | 238 kts | 12° |
| 2026-04-19 23:28 | 33.96076 | -85.57124 | 16355 ft | 239 kts | 13° |
| 2026-04-19 23:28 | 33.97618 | -85.56378 | 16148 ft | 239 kts | 13° |
| 2026-04-19 23:28 | 33.99162 | -85.55635 | 15955 ft | 238 kts | 12° |
| 2026-04-19 23:29 | 34.00657 | -85.54912 | 15804 ft | 232 kts | 12° |
| 2026-04-19 23:29 | 34.02148 | -85.54190 | 15634 ft | 232 kts | 12° |
| 2026-04-19 23:29 | 34.03659 | -85.53471 | 15473 ft | 234 kts | 12° |
| 2026-04-19 23:29 | 34.05190 | -85.52747 | 15325 ft | 237 kts | 12° |
| 2026-04-19 23:30 | 34.06734 | -85.52025 | 15195 ft | 238 kts | 12° |
| 2026-04-19 23:30 | 34.08287 | -85.51301 | 15065 ft | 239 kts | 13° |
| 2026-04-19 23:30 | 34.09842 | -85.50580 | 14898 ft | 240 kts | 13° |
| 2026-04-19 23:30 | 34.11410 | -85.49862 | 14716 ft | 240 kts | 12° |
| 2026-04-19 23:31 | 34.12933 | -85.49164 | 14531 ft | 234 kts | 12° |
| 2026-04-19 23:31 | 34.14446 | -85.48467 | 14355 ft | 231 kts | 12° |
| 2026-04-19 23:31 | 34.15939 | -85.47779 | 14162 ft | 229 kts | 12° |
| 2026-04-19 23:31 | 34.17422 | -85.47097 | 13955 ft | 227 kts | 12° |
| 2026-04-19 23:32 | 34.18897 | -85.46421 | 13746 ft | 226 kts | 12° |
| 2026-04-19 23:32 | 34.20367 | -85.45750 | 13538 ft | 225 kts | 12° |
| 2026-04-19 23:32 | 34.21833 | -85.45081 | 13330 ft | 225 kts | 12° |
| 2026-04-19 23:32 | 34.23296 | -85.44419 | 13131 ft | 224 kts | 12° |
| 2026-04-19 23:33 | 34.24756 | -85.43758 | 12920 ft | 224 kts | 12° |
| 2026-04-19 23:33 | 34.26197 | -85.43102 | 12857 ft | 219 kts | 12° |
| 2026-04-19 23:33 | 34.27624 | -85.42452 | 12755 ft | 217 kts | 12° |
| 2026-04-19 23:33 | 34.29044 | -85.41804 | 12630 ft | 218 kts | 12° |
| 2026-04-19 23:34 | 34.30467 | -85.41147 | 12557 ft | 219 kts | 12° |
| 2026-04-19 23:34 | 34.31877 | -85.40506 | 12484 ft | 219 kts | 12° |
| 2026-04-19 23:34 | 34.33309 | -85.39858 | 12387 ft | 221 kts | 12° |
| 2026-04-19 23:34 | 34.34754 | -85.39206 | 12252 ft | 222 kts | 12° |
| 2026-04-19 23:35 | 34.36212 | -85.38616 | 12112 ft | 220 kts | 8° |
| 2026-04-19 23:35 | 34.37687 | -85.38147 | 11980 ft | 219 kts | 6° |
| 2026-04-19 23:35 | 34.39167 | -85.37712 | 11859 ft | 218 kts | 4° |
| 2026-04-19 23:35 | 34.40658 | -85.37411 | 11715 ft | 216 kts | 1° |
| 2026-04-19 23:36 | 34.42149 | -85.37171 | 11596 ft | 216 kts | 0° |
| 2026-04-19 23:36 | 34.43638 | -85.36929 | 11466 ft | 216 kts | 0° |
| 2026-04-19 23:36 | 34.45119 | -85.36692 | 11344 ft | 216 kts | 0° |
| 2026-04-19 23:36 | 34.46607 | -85.36455 | 11251 ft | 210 kts | 0° |
| 2026-04-19 23:37 | 34.48054 | -85.36222 | 11251 ft | 211 kts | 0° |
| 2026-04-19 23:37 | 34.49502 | -85.35993 | 11250 ft | 213 kts | 0° |
| 2026-04-19 23:37 | 34.50973 | -85.35761 | 11253 ft | 214 kts | 0° |
| 2026-04-19 23:37 | 34.52449 | -85.35528 | 11254 ft | 214 kts | 0° |
| 2026-04-19 23:38 | 34.53924 | -85.35295 | 11250 ft | 213 kts | 0° |
| 2026-04-19 23:38 | 34.55395 | -85.35064 | 11255 ft | 212 kts | 0° |
| 2026-04-19 23:38 | 34.56855 | -85.34995 | 11192 ft | 211 kts | 353° |
| 2026-04-19 23:38 | 34.58346 | -85.34956 | 11075 ft | 218 kts | 359° |
| 2026-04-19 23:39 | 34.59837 | -85.34584 | 10997 ft | 224 kts | 10° |
| 2026-04-19 23:39 | 34.61309 | -85.33956 | 11002 ft | 224 kts | 13° |
| 2026-04-19 23:39 | 34.62769 | -85.33325 | 11007 ft | 222 kts | 11° |
| 2026-04-19 23:39 | 34.64239 | -85.32734 | 10946 ft | 225 kts | 11° |
| 2026-04-19 23:40 | 34.65697 | -85.32148 | 10661 ft | 211 kts | 11° |
| 2026-04-19 23:40 | 34.67065 | -85.31594 | 10345 ft | 204 kts | 11° |
| 2026-04-19 23:40 | 34.68412 | -85.31055 | 9916 ft | 203 kts | 11° |
| 2026-04-19 23:40 | 34.69729 | -85.30524 | 9395 ft | 197 kts | 11° |
| 2026-04-19 23:41 | 34.71018 | -85.30003 | 8884 ft | 193 kts | 12° |
| 2026-04-19 23:41 | 34.72296 | -85.29487 | 8279 ft | 192 kts | 12° |
| 2026-04-19 23:41 | 34.73558 | -85.28977 | 7707 ft | 187 kts | 12° |
| 2026-04-19 23:41 | 34.74705 | -85.28507 | 7138 ft | 165 kts | 13° |
| 2026-04-19 23:42 | 34.75732 | -85.28090 | 6536 ft | 149 kts | 12° |
| 2026-04-19 23:42 | 34.76696 | -85.27706 | 5904 ft | 143 kts | 13° |
| 2026-04-19 23:42 | 34.77637 | -85.27341 | 5298 ft | 141 kts | 13° |
| 2026-04-19 23:42 | 34.78570 | -85.27026 | 4705 ft | 138 kts | 8° |
| 2026-04-19 23:43 | 34.79518 | -85.26823 | 4150 ft | 140 kts | 6° |
| 2026-04-19 23:43 | 34.80494 | -85.26727 | 3618 ft | 140 kts | 358° |
| 2026-04-19 23:43 | 34.81455 | -85.26713 | 3187 ft | 137 kts | 357° |
| 2026-04-19 23:43 | 34.82384 | -85.26753 | 2987 ft | 128 kts | 354° |
| 2026-04-19 23:44 | 34.83240 | -85.26919 | 2982 ft | 121 kts | 347° |
| 2026-04-19 23:44 | 34.84056 | -85.27028 | 2981 ft | 119 kts | 355° |
| 2026-04-19 23:44 | 34.84872 | -85.26963 | 2987 ft | 118 kts | 11° |
| 2026-04-19 23:44 | 34.85674 | -85.26737 | 2983 ft | 119 kts | 9° |
| 2026-04-19 23:45 | 34.86536 | -85.26461 | 3004 ft | 134 kts | 12° |
| 2026-04-19 23:45 | 34.87463 | -85.26143 | 3005 ft | 142 kts | 13° |
| 2026-04-19 23:45 | 34.88431 | -85.25799 | 2997 ft | 146 kts | 13° |
| 2026-04-19 23:45 | 34.89401 | -85.25440 | 3004 ft | 145 kts | 13° |
| 2026-04-19 23:46 | 34.90380 | -85.25089 | 2998 ft | 148 kts | 13° |
| 2026-04-19 23:46 | 34.91364 | -85.24727 | 2940 ft | 145 kts | 13° |
| 2026-04-19 23:46 | 34.92283 | -85.24388 | 2756 ft | 131 kts | 12° |
| 2026-04-19 23:46 | 34.93118 | -85.24089 | 2576 ft | 123 kts | 12° |
| 2026-04-19 23:47 | 34.93893 | -85.23801 | 2432 ft | 113 kts | 13° |
| 2026-04-19 23:47 | 34.94634 | -85.23536 | 2295 ft | 112 kts | 11° |
| 2026-04-19 23:47 | 34.95382 | -85.23262 | 2133 ft | 112 kts | 15° |
| 2026-04-19 23:47 | 34.96122 | -85.22989 | 1989 ft | 112 kts | 11° |
| 2026-04-19 23:48 | 34.96886 | -85.22717 | 1825 ft | 117 kts | 13° |
| 2026-04-19 23:48 | 34.97669 | -85.22429 | 1672 ft | 120 kts | 14° |
| 2026-04-19 23:48 | 34.98463 | -85.22134 | 1505 ft | 117 kts | 13° |
| 2026-04-19 23:48 | 34.99182 | -85.21874 | 1354 ft | 102 kts | 12° |
| 2026-04-19 23:49 | 34.99862 | -85.21627 | 1219 ft | 103 kts | 10° |
| 2026-04-19 23:49 | 35.00538 | -85.21390 | 1093 ft | 103 kts | 8° |
| 2026-04-19 23:49 | 35.01206 | -85.21128 | 951 ft | 101 kts | 9° |
| 2026-04-19 23:49 | 35.01873 | -85.20901 | 810 ft | 101 kts | 13° |
| 2026-04-19 23:50 | 35.02498 | -85.20656 | 679 ft | 81 kts | 6° |
| 2026-04-19 23:50 | 35.02954 | -85.20504 | 675 ft | 55 kts | 17° |
| 2026-04-19 23:50 | 35.03250 | -85.20393 | 673 ft | 29 kts | 19° |
| 2026-04-19 23:50 | 35.03343 | -85.20411 | 673 ft | 9 kts | 293° |
| 2026-04-19 23:51 | 35.03357 | -85.20474 | 674 ft | 7 kts | 257° |
| 2026-04-19 23:51 | 35.03303 | -85.20524 | 674 ft | 12 kts | 255° |
| 2026-04-19 23:51 | 35.03284 | -85.20601 | 674 ft | 11 kts | 202° |
| 2026-04-19 23:51 | 35.03278 | -85.20604 | 674 ft | 0 kts | 197° |